Rescue Aktia Porvoo — OJ7304 — position and weather

sailwx.info

Track history (hours):
 
Tides and Currents Weather Stations Pressure Air Temp Water Temp Dewpoint Dewpoint Depression Visibility Wind Speed Wind Dir Waves Ship Positions

Rescue Aktia Porvoo

Last reported at 2017-Jun-24 14:45 UTC. Time now 2017-Jun-24 20:46 UTC.
Position N 60°20' E 025°35'.

Length 12 m; draft 1 m.

Type: SAR. MMSI: 230012240.

Date/timePositionNaut miles runAvg speedWind from/ knotsBaromVisibWave heightAir tempDewpointWater temp
2017-Jun-24 14:45N 60°20' E 025°35'0 0.0
2017-Jun-24 14:00N 60°20' E 025°35'3 6.7
2017-Jun-24 13:31N 60°17' E 025°33'4 8.9
2017-Jun-24 13:00N 60°13' E 025°31'0 0.0
2017-Jun-24 12:30N 60°13' E 025°31'5 9.6
2017-Jun-24 12:00N 60°13' E 025°21'2 3.3
2017-Jun-24 11:31N 60°13' E 025°25'917.6
2017-Jun-24 11:00N 60°20' E 025°35'0 0.2
2017-Jun-24 10:30N 60°20' E 025°35'0 0.0
2017-Jun-22 17:18N 60°20' E 025°35'2 5.9
2017-Jun-22 17:00N 60°19' E 025°35'918.7
2017-Jun-22 16:30N 60°14' E 025°52'2 4.4
2017-Jun-22 16:01N 60°13' E 025°47'816.3
2017-Jun-22 15:31N 60°12' E 025°31'0 0.9
2017-Jun-22 15:01N 60°13' E 025°31'2 3.2
2017-Jun-22 14:31N 60°14' E 025°33'  
2017-Jun-14 19:10N 60°20' E 025°35'1 7.7
2017-Jun-14 19:01N 60°19' E 025°34'1019.2
2017-Jun-14 18:30N 60°14' E 025°51'714.4
2017-Jun-14 18:00N 60°21' E 025°55'0 0.0
2017-Jun-14 17:30N 60°21' E 025°55'0 0.0
2017-Jun-14 17:00N 60°21' E 025°55'0 0.0
2017-Jun-14 16:30N 60°21' E 025°55'611.8
2017-Jun-14 16:00N 60°15' E 025°55'816.8
2017-Jun-14 15:31N 60°12' E 025°40'916.2
2017-Jun-14 14:58N 60°20' E 025°35'  
Track history (hours):
 
Tides and Currents Weather Stations Pressure Air Temp Water Temp Dewpoint Dewpoint Depression Visibility Wind Speed Wind Dir Waves Ship Positions

Rescue Aktia Porvoo

Last reported at 2017-Jun-24 14:45 UTC. Time now 2017-Jun-24 20:46 UTC.
Position N 60°20' E 025°35'.

Length 12 m; draft 1 m.

Type: SAR. MMSI: 230012240.

Date/timePositionNaut miles runAvg speedWind from/ knotsBaromVisibWave heightAir tempDewpointWater temp
2017-Jun-24 14:45N 60°20' E 025°35'0 0.0
2017-Jun-24 14:00N 60°20' E 025°35'3 6.7
2017-Jun-24 13:31N 60°17' E 025°33'4 8.9
2017-Jun-24 13:00N 60°13' E 025°31'0 0.0
2017-Jun-24 12:30N 60°13' E 025°31'5 9.6
2017-Jun-24 12:00N 60°13' E 025°21'2 3.3
2017-Jun-24 11:31N 60°13' E 025°25'917.6
2017-Jun-24 11:00N 60°20' E 025°35'0 0.2
2017-Jun-24 10:30N 60°20' E 025°35'0 0.0
2017-Jun-22 17:18N 60°20' E 025°35'2 5.9
2017-Jun-22 17:00N 60°19' E 025°35'918.7
2017-Jun-22 16:30N 60°14' E 025°52'2 4.4
2017-Jun-22 16:01N 60°13' E 025°47'816.3
2017-Jun-22 15:31N 60°12' E 025°31'0 0.9
2017-Jun-22 15:01N 60°13' E 025°31'2 3.2
2017-Jun-22 14:31N 60°14' E 025°33'  
2017-Jun-14 19:10N 60°20' E 025°35'1 7.7
2017-Jun-14 19:01N 60°19' E 025°34'1019.2
2017-Jun-14 18:30N 60°14' E 025°51'714.4
2017-Jun-14 18:00N 60°21' E 025°55'0 0.0
2017-Jun-14 17:30N 60°21' E 025°55'0 0.0
2017-Jun-14 17:00N 60°21' E 025°55'0 0.0
2017-Jun-14 16:30N 60°21' E 025°55'611.8
2017-Jun-14 16:00N 60°15' E 025°55'816.8
2017-Jun-14 15:31N 60°12' E 025°40'916.2
2017-Jun-14 14:58N 60°20' E 025°35'  

Dump ship's entire track history